Main page
METAR-TAF:

METAR-TAF

Airports :

RAF Shawbury

Shawbury, England

latitude: 52-48N, longitude: 002-40W, elevation: 76 m

Current weather observation

The report was made 42 minutes ago, at 15:50 UTC
Wind 10 kt from the South
Temperature 6°C
Humidity 93%
Pressure 1014 hPa
Visibility: 6000 m
haze

METAR: EGOS 251550Z AUTO 18010KT 6000 HZ OVC007/// 06/05 Q1014

Time: 16:32 (16:32 UTC)

Forecast

The report was made 26 hours and 45 minutes ago, at 13:47 UTC
Forecast valid from 24 at 15 UTC to 24 at 18 UTC
Wind 8 kt from the West
Visibility 10 km or more
Broken clouds at a height of 2300 ft
Temporary
from 24 at 15 UTC to 24 at 18 UTC
Scattered clouds at a height of 1400 ft

TAF: EGOS 241347Z 2415/2418 26008KT 9999 BKN023 TEMPO 2415/2418 SCT014

Weather observations and forecasts of more than 4000 airports (METAR and TAF reports).

The available stations are represented by yellow and red dots on the map.

Hover mouse over dot to see the name of the station.

Then click to see weather observations and forecasts.

To change the map : click on the green buttons with a black cross to zoom in, on the green button with a dash to zoom out, or on the green arrows for adjacent maps.


METAR-TAF: